sensor_id;sensor_type;location;lat;lon;timestamp;P1;durP1;ratioP1;P2;durP2;ratioP2
22786;SDS011;63134;52.020;4.714;2023-04-06T00:02:02;31.67;;;15.25;;
22786;SDS011;63134;52.020;4.714;2023-04-06T00:04:47;25.90;;;15.75;;
22786;SDS011;63134;52.020;4.714;2023-04-06T00:07:33;22.63;;;14.57;;
22786;SDS011;63134;52.020;4.714;2023-04-06T00:10:19;20.95;;;13.25;;
22786;SDS011;63134;52.020;4.714;2023-04-06T00:13:05;24.75;;;14.20;;
22786;SDS011;63134;52.020;4.714;2023-04-06T00:15:55;22.33;;;13.85;;
22786;SDS011;63134;52.020;4.714;2023-04-06T00:18:41;27.13;;;13.48;;
22786;SDS011;63134;52.020;4.714;2023-04-06T00:21:32;19.98;;;12.35;;
22786;SDS011;63134;52.020;4.714;2023-04-06T00:24:17;23.58;;;12.63;;
22786;SDS011;63134;52.020;4.714;2023-04-06T00:27:03;17.73;;;11.93;;
22786;SDS011;63134;52.020;4.714;2023-04-06T00:29:48;23.38;;;13.65;;
22786;SDS011;63134;52.020;4.714;2023-04-06T00:32:34;22.30;;;12.02;;
22786;SDS011;63134;52.020;4.714;2023-04-06T00:35:21;21.77;;;12.90;;
22786;SDS011;63134;52.020;4.714;2023-04-06T00:38:06;19.80;;;12.55;;
22786;SDS011;63134;52.020;4.714;2023-04-06T00:40:52;20.33;;;11.75;;
22786;SDS011;63134;52.020;4.714;2023-04-06T00:43:40;21.08;;;10.90;;
22786;SDS011;63134;52.020;4.714;2023-04-06T00:46:26;20.73;;;11.45;;
22786;SDS011;63134;52.020;4.714;2023-04-06T00:49:14;22.45;;;11.38;;
22786;SDS011;63134;52.020;4.714;2023-04-06T00:52:00;21.50;;;11.27;;
22786;SDS011;63134;52.020;4.714;2023-04-06T00:54:46;23.90;;;11.15;;
22786;SDS011;63134;52.020;4.714;2023-04-06T00:57:33;17.02;;;11.55;;
22786;SDS011;63134;52.020;4.714;2023-04-06T01:00:18;20.75;;;11.15;;
22786;SDS011;63134;52.020;4.714;2023-04-06T01:03:07;19.60;;;11.75;;
22786;SDS011;63134;52.020;4.714;2023-04-06T01:05:57;22.65;;;12.32;;
22786;SDS011;63134;52.020;4.714;2023-04-06T01:08:48;20.02;;;11.68;;
22786;SDS011;63134;52.020;4.714;2023-04-06T01:11:37;15.98;;;10.93;;
22786;SDS011;63134;52.020;4.714;2023-04-06T01:14:27;18.65;;;11.25;;
22786;SDS011;63134;52.020;4.714;2023-04-06T01:17:16;22.02;;;12.80;;
22786;SDS011;63134;52.020;4.714;2023-04-06T01:20:02;20.25;;;12.82;;
22786;SDS011;63134;52.020;4.714;2023-04-06T01:22:50;24.50;;;12.32;;
22786;SDS011;63134;52.020;4.714;2023-04-06T01:25:36;20.50;;;11.55;;
22786;SDS011;63134;52.020;4.714;2023-04-06T01:28:25;21.73;;;11.88;;
22786;SDS011;63134;52.020;4.714;2023-04-06T01:31:17;24.05;;;12.43;;
22786;SDS011;63134;52.020;4.714;2023-04-06T01:34:07;17.90;;;11.95;;
22786;SDS011;63134;52.020;4.714;2023-04-06T01:36:52;19.75;;;11.65;;
22786;SDS011;63134;52.020;4.714;2023-04-06T01:39:44;25.02;;;12.07;;
22786;SDS011;63134;52.020;4.714;2023-04-06T01:42:39;17.70;;;11.82;;
22786;SDS011;63134;52.020;4.714;2023-04-06T01:45:25;20.65;;;12.95;;
22786;SDS011;63134;52.020;4.714;2023-04-06T01:48:16;18.63;;;12.15;;
22786;SDS011;63134;52.020;4.714;2023-04-06T01:51:02;19.13;;;12.70;;
22786;SDS011;63134;52.020;4.714;2023-04-06T01:53:51;20.30;;;12.23;;
22786;SDS011;63134;52.020;4.714;2023-04-06T01:56:40;20.08;;;12.13;;
22786;SDS011;63134;52.020;4.714;2023-04-06T01:59:40;18.77;;;11.52;;
22786;SDS011;63134;52.020;4.714;2023-04-06T02:02:37;20.63;;;12.10;;
22786;SDS011;63134;52.020;4.714;2023-04-06T02:05:28;21.80;;;12.25;;
22786;SDS011;63134;52.020;4.714;2023-04-06T02:08:15;18.50;;;11.57;;
22786;SDS011;63134;52.020;4.714;2023-04-06T02:11:01;17.10;;;12.25;;
22786;SDS011;63134;52.020;4.714;2023-04-06T02:13:51;18.73;;;12.50;;
22786;SDS011;63134;52.020;4.714;2023-04-06T02:16:39;21.73;;;12.80;;
22786;SDS011;63134;52.020;4.714;2023-04-06T02:19:24;24.77;;;13.75;;
22786;SDS011;63134;52.020;4.714;2023-04-06T02:22:11;17.38;;;12.48;;
22786;SDS011;63134;52.020;4.714;2023-04-06T02:24:56;22.15;;;12.98;;
22786;SDS011;63134;52.020;4.714;2023-04-06T02:27:44;18.77;;;12.05;;
22786;SDS011;63134;52.020;4.714;2023-04-06T02:30:30;25.42;;;13.20;;
22786;SDS011;63134;52.020;4.714;2023-04-06T02:33:17;20.77;;;12.77;;
22786;SDS011;63134;52.020;4.714;2023-04-06T02:36:05;20.45;;;12.88;;
22786;SDS011;63134;52.020;4.714;2023-04-06T02:38:50;20.67;;;13.43;;
22786;SDS011;63134;52.020;4.714;2023-04-06T02:41:37;25.75;;;13.25;;
22786;SDS011;63134;52.020;4.714;2023-04-06T02:44:23;20.70;;;12.80;;
22786;SDS011;63134;52.020;4.714;2023-04-06T02:47:09;25.35;;;14.30;;
22786;SDS011;63134;52.020;4.714;2023-04-06T02:49:59;17.63;;;12.70;;
22786;SDS011;63134;52.020;4.714;2023-04-06T02:52:45;23.80;;;13.15;;
22786;SDS011;63134;52.020;4.714;2023-04-06T02:55:31;20.63;;;13.05;;
22786;SDS011;63134;52.020;4.714;2023-04-06T02:58:16;22.30;;;13.15;;
22786;SDS011;63134;52.020;4.714;2023-04-06T03:01:06;28.23;;;13.27;;
22786;SDS011;63134;52.020;4.714;2023-04-06T03:03:53;23.73;;;14.55;;
22786;SDS011;63134;52.020;4.714;2023-04-06T03:06:42;24.65;;;13.77;;
22786;SDS011;63134;52.020;4.714;2023-04-06T03:09:38;20.25;;;13.63;;
22786;SDS011;63134;52.020;4.714;2023-04-06T03:12:24;20.90;;;13.38;;
22786;SDS011;63134;52.020;4.714;2023-04-06T03:15:39;23.85;;;14.50;;
22786;SDS011;63134;52.020;4.714;2023-04-06T03:18:31;21.67;;;14.15;;
22786;SDS011;63134;52.020;4.714;2023-04-06T03:21:19;22.02;;;13.30;;
22786;SDS011;63134;52.020;4.714;2023-04-06T03:24:08;22.40;;;14.23;;
22786;SDS011;63134;52.020;4.714;2023-04-06T03:26:53;22.67;;;14.88;;
22786;SDS011;63134;52.020;4.714;2023-04-06T03:29:40;23.95;;;15.77;;
22786;SDS011;63134;52.020;4.714;2023-04-06T03:32:28;23.73;;;15.05;;
22786;SDS011;63134;52.020;4.714;2023-04-06T03:35:14;21.23;;;14.05;;
22786;SDS011;63134;52.020;4.714;2023-04-06T03:38:03;21.85;;;14.25;;
22786;SDS011;63134;52.020;4.714;2023-04-06T03:40:48;25.63;;;14.30;;
22786;SDS011;63134;52.020;4.714;2023-04-06T03:43:38;24.13;;;14.90;;
22786;SDS011;63134;52.020;4.714;2023-04-06T03:46:23;24.55;;;15.02;;
22786;SDS011;63134;52.020;4.714;2023-04-06T03:49:13;26.33;;;15.20;;
22786;SDS011;63134;52.020;4.714;2023-04-06T03:52:02;25.88;;;15.55;;
22786;SDS011;63134;52.020;4.714;2023-04-06T03:54:48;21.60;;;14.75;;
22786;SDS011;63134;52.020;4.714;2023-04-06T03:57:34;26.60;;;17.63;;
22786;SDS011;63134;52.020;4.714;2023-04-06T04:00:19;24.45;;;16.20;;
22786;SDS011;63134;52.020;4.714;2023-04-06T04:03:05;24.05;;;15.38;;
22786;SDS011;63134;52.020;4.714;2023-04-06T04:05:51;25.30;;;15.68;;
22786;SDS011;63134;52.020;4.714;2023-04-06T04:08:36;28.88;;;16.30;;
22786;SDS011;63134;52.020;4.714;2023-04-06T04:11:22;28.70;;;16.58;;
22786;SDS011;63134;52.020;4.714;2023-04-06T04:14:14;27.73;;;15.93;;
22786;SDS011;63134;52.020;4.714;2023-04-06T04:16:59;26.90;;;16.40;;
22786;SDS011;63134;52.020;4.714;2023-04-06T04:19:45;26.42;;;15.63;;
22786;SDS011;63134;52.020;4.714;2023-04-06T04:22:32;26.70;;;17.10;;
22786;SDS011;63134;52.020;4.714;2023-04-06T04:25:18;29.35;;;16.90;;
22786;SDS011;63134;52.020;4.714;2023-04-06T04:28:06;30.33;;;17.75;;
22786;SDS011;63134;52.020;4.714;2023-04-06T04:30:52;29.38;;;17.35;;
22786;SDS011;63134;52.020;4.714;2023-04-06T04:33:38;25.15;;;17.60;;
22786;SDS011;63134;52.020;4.714;2023-04-06T04:36:30;28.00;;;17.00;;
22786;SDS011;63134;52.020;4.714;2023-04-06T04:39:22;29.52;;;17.73;;
22786;SDS011;63134;52.020;4.714;2023-04-06T04:42:15;26.80;;;17.52;;
22786;SDS011;63134;52.020;4.714;2023-04-06T04:45:06;26.42;;;17.65;;
22786;SDS011;63134;52.020;4.714;2023-04-06T04:48:04;31.67;;;18.77;;
22786;SDS011;63134;52.020;4.714;2023-04-06T04:51:03;26.15;;;17.30;;
22786;SDS011;63134;52.020;4.714;2023-04-06T04:54:09;34.95;;;17.85;;
22786;SDS011;63134;52.020;4.714;2023-04-06T04:56:57;31.40;;;18.40;;
22786;SDS011;63134;52.020;4.714;2023-04-06T04:59:54;29.35;;;19.15;;
22786;SDS011;63134;52.020;4.714;2023-04-06T05:02:41;30.98;;;18.77;;
22786;SDS011;63134;52.020;4.714;2023-04-06T05:05:33;36.63;;;18.77;;
22786;SDS011;63134;52.020;4.714;2023-04-06T05:08:20;28.92;;;18.60;;
22786;SDS011;63134;52.020;4.714;2023-04-06T05:11:06;31.20;;;19.80;;
22786;SDS011;63134;52.020;4.714;2023-04-06T05:13:58;31.17;;;19.33;;
22786;SDS011;63134;52.020;4.714;2023-04-06T05:16:45;31.90;;;18.80;;
22786;SDS011;63134;52.020;4.714;2023-04-06T05:19:31;33.08;;;19.95;;
22786;SDS011;63134;52.020;4.714;2023-04-06T05:22:18;37.05;;;19.50;;
22786;SDS011;63134;52.020;4.714;2023-04-06T05:25:13;33.38;;;19.10;;
22786;SDS011;63134;52.020;4.714;2023-04-06T05:28:02;29.65;;;20.02;;
22786;SDS011;63134;52.020;4.714;2023-04-06T05:30:51;31.58;;;18.85;;
22786;SDS011;63134;52.020;4.714;2023-04-06T05:33:37;30.98;;;19.92;;
22786;SDS011;63134;52.020;4.714;2023-04-06T05:36:29;27.45;;;19.45;;
22786;SDS011;63134;52.020;4.714;2023-04-06T05:39:16;33.15;;;20.88;;
22786;SDS011;63134;52.020;4.714;2023-04-06T05:42:05;29.50;;;19.55;;
22786;SDS011;63134;52.020;4.714;2023-04-06T05:45:13;30.20;;;19.98;;
22786;SDS011;63134;52.020;4.714;2023-04-06T05:48:05;28.67;;;19.17;;
22786;SDS011;63134;52.020;4.714;2023-04-06T05:50:50;27.88;;;18.98;;
22786;SDS011;63134;52.020;4.714;2023-04-06T05:53:41;31.30;;;18.45;;
22786;SDS011;63134;52.020;4.714;2023-04-06T05:56:26;30.08;;;19.02;;
22786;SDS011;63134;52.020;4.714;2023-04-06T05:59:12;33.45;;;19.83;;
22786;SDS011;63134;52.020;4.714;2023-04-06T06:01:58;28.63;;;19.75;;
22786;SDS011;63134;52.020;4.714;2023-04-06T06:04:44;32.42;;;18.40;;
22786;SDS011;63134;52.020;4.714;2023-04-06T06:07:30;35.10;;;20.38;;
22786;SDS011;63134;52.020;4.714;2023-04-06T06:10:18;32.08;;;19.10;;
22786;SDS011;63134;52.020;4.714;2023-04-06T06:13:04;34.55;;;19.83;;
22786;SDS011;63134;52.020;4.714;2023-04-06T06:15:50;36.65;;;19.67;;
22786;SDS011;63134;52.020;4.714;2023-04-06T06:18:38;35.08;;;20.10;;
22786;SDS011;63134;52.020;4.714;2023-04-06T06:21:25;31.20;;;19.40;;
22786;SDS011;63134;52.020;4.714;2023-04-06T06:24:11;28.55;;;19.38;;
22786;SDS011;63134;52.020;4.714;2023-04-06T06:26:57;32.95;;;19.83;;
22786;SDS011;63134;52.020;4.714;2023-04-06T06:29:45;29.60;;;19.83;;
22786;SDS011;63134;52.020;4.714;2023-04-06T06:32:33;34.80;;;20.23;;
22786;SDS011;63134;52.020;4.714;2023-04-06T06:35:19;34.08;;;20.17;;
22786;SDS011;63134;52.020;4.714;2023-04-06T06:38:05;33.90;;;20.00;;
22786;SDS011;63134;52.020;4.714;2023-04-06T06:40:51;32.90;;;19.40;;
22786;SDS011;63134;52.020;4.714;2023-04-06T06:43:50;29.50;;;18.77;;
22786;SDS011;63134;52.020;4.714;2023-04-06T06:46:36;35.15;;;21.05;;
22786;SDS011;63134;52.020;4.714;2023-04-06T06:49:23;39.90;;;20.85;;
22786;SDS011;63134;52.020;4.714;2023-04-06T06:52:08;33.63;;;21.42;;
22786;SDS011;63134;52.020;4.714;2023-04-06T06:54:54;29.98;;;20.17;;
22786;SDS011;63134;52.020;4.714;2023-04-06T06:57:41;32.03;;;19.70;;
22786;SDS011;63134;52.020;4.714;2023-04-06T07:00:33;30.77;;;20.35;;
22786;SDS011;63134;52.020;4.714;2023-04-06T07:03:19;32.20;;;20.27;;
22786;SDS011;63134;52.020;4.714;2023-04-06T07:06:04;28.45;;;19.08;;
22786;SDS011;63134;52.020;4.714;2023-04-06T07:08:50;36.55;;;19.88;;
22786;SDS011;63134;52.020;4.714;2023-04-06T07:11:35;34.83;;;20.27;;
22786;SDS011;63134;52.020;4.714;2023-04-06T07:14:21;29.25;;;19.63;;
22786;SDS011;63134;52.020;4.714;2023-04-06T07:17:06;38.63;;;21.73;;
22786;SDS011;63134;52.020;4.714;2023-04-06T07:19:53;35.25;;;20.58;;
22786;SDS011;63134;52.020;4.714;2023-04-06T07:22:39;36.15;;;21.98;;
22786;SDS011;63134;52.020;4.714;2023-04-06T07:25:25;31.13;;;20.58;;
22786;SDS011;63134;52.020;4.714;2023-04-06T07:28:10;37.22;;;20.70;;
22786;SDS011;63134;52.020;4.714;2023-04-06T07:30:56;36.38;;;21.08;;
22786;SDS011;63134;52.020;4.714;2023-04-06T07:33:43;46.42;;;22.10;;
22786;SDS011;63134;52.020;4.714;2023-04-06T07:36:30;33.15;;;21.67;;
22786;SDS011;63134;52.020;4.714;2023-04-06T07:39:17;31.30;;;21.20;;
22786;SDS011;63134;52.020;4.714;2023-04-06T07:42:03;37.70;;;23.63;;
22786;SDS011;63134;52.020;4.714;2023-04-06T07:44:49;35.72;;;22.60;;
22786;SDS011;63134;52.020;4.714;2023-04-06T07:47:35;36.00;;;21.55;;
22786;SDS011;63134;52.020;4.714;2023-04-06T07:50:20;34.58;;;22.02;;
22786;SDS011;63134;52.020;4.714;2023-04-06T07:53:07;36.03;;;22.48;;
22786;SDS011;63134;52.020;4.714;2023-04-06T07:55:55;36.20;;;22.60;;
22786;SDS011;63134;52.020;4.714;2023-04-06T07:58:41;43.38;;;22.55;;
22786;SDS011;63134;52.020;4.714;2023-04-06T08:01:27;35.75;;;23.52;;
22786;SDS011;63134;52.020;4.714;2023-04-06T08:04:13;36.38;;;23.83;;
22786;SDS011;63134;52.020;4.714;2023-04-06T08:06:59;43.40;;;22.88;;
22786;SDS011;63134;52.020;4.714;2023-04-06T08:09:44;40.78;;;24.90;;
22786;SDS011;63134;52.020;4.714;2023-04-06T08:12:29;40.53;;;24.65;;
22786;SDS011;63134;52.020;4.714;2023-04-06T08:15:17;40.08;;;24.02;;
22786;SDS011;63134;52.020;4.714;2023-04-06T08:18:03;42.25;;;22.67;;
22786;SDS011;63134;52.020;4.714;2023-04-06T08:20:48;37.42;;;24.50;;
22786;SDS011;63134;52.020;4.714;2023-04-06T08:23:34;36.88;;;23.05;;
22786;SDS011;63134;52.020;4.714;2023-04-06T08:26:20;34.10;;;23.50;;
22786;SDS011;63134;52.020;4.714;2023-04-06T08:29:08;39.83;;;24.20;;
22786;SDS011;63134;52.020;4.714;2023-04-06T08:31:54;37.05;;;23.65;;
22786;SDS011;63134;52.020;4.714;2023-04-06T08:34:39;38.20;;;23.70;;
22786;SDS011;63134;52.020;4.714;2023-04-06T08:37:25;37.13;;;24.73;;
22786;SDS011;63134;52.020;4.714;2023-04-06T08:40:11;40.42;;;23.70;;
22786;SDS011;63134;52.020;4.714;2023-04-06T08:42:58;46.58;;;24.73;;
22786;SDS011;63134;52.020;4.714;2023-04-06T08:45:49;38.20;;;25.00;;
22786;SDS011;63134;52.020;4.714;2023-04-06T08:48:34;35.83;;;23.58;;
22786;SDS011;63134;52.020;4.714;2023-04-06T08:51:23;36.03;;;22.60;;
22786;SDS011;63134;52.020;4.714;2023-04-06T08:54:13;41.10;;;25.08;;
22786;SDS011;63134;52.020;4.714;2023-04-06T08:57:02;36.47;;;23.55;;
22786;SDS011;63134;52.020;4.714;2023-04-06T08:59:48;37.42;;;23.38;;
22786;SDS011;63134;52.020;4.714;2023-04-06T09:02:36;35.05;;;22.13;;
22786;SDS011;63134;52.020;4.714;2023-04-06T09:05:24;36.85;;;20.70;;
22786;SDS011;63134;52.020;4.714;2023-04-06T09:08:10;35.88;;;19.75;;
22786;SDS011;63134;52.020;4.714;2023-04-06T09:10:56;33.85;;;18.67;;
22786;SDS011;63134;52.020;4.714;2023-04-06T09:13:48;29.05;;;17.58;;
22786;SDS011;63134;52.020;4.714;2023-04-06T09:16:44;33.55;;;18.02;;
22786;SDS011;63134;52.020;4.714;2023-04-06T09:19:30;33.95;;;17.75;;
22786;SDS011;63134;52.020;4.714;2023-04-06T09:22:16;23.35;;;13.70;;
22786;SDS011;63134;52.020;4.714;2023-04-06T09:25:02;26.02;;;14.88;;
22786;SDS011;63134;52.020;4.714;2023-04-06T09:27:48;28.98;;;15.65;;
22786;SDS011;63134;52.020;4.714;2023-04-06T09:30:47;25.75;;;13.93;;
22786;SDS011;63134;52.020;4.714;2023-04-06T09:33:40;19.42;;;11.88;;
22786;SDS011;63134;52.020;4.714;2023-04-06T09:36:33;18.88;;;11.13;;
22786;SDS011;63134;52.020;4.714;2023-04-06T09:39:20;20.42;;;11.10;;
22786;SDS011;63134;52.020;4.714;2023-04-06T09:42:07;17.40;;;9.25;;
22786;SDS011;63134;52.020;4.714;2023-04-06T09:44:54;14.70;;;11.13;;
22786;SDS011;63134;52.020;4.714;2023-04-06T09:47:40;17.55;;;11.27;;
22786;SDS011;63134;52.020;4.714;2023-04-06T09:50:28;15.90;;;9.75;;
22786;SDS011;63134;52.020;4.714;2023-04-06T09:53:14;13.15;;;8.85;;
22786;SDS011;63134;52.020;4.714;2023-04-06T09:56:03;13.73;;;9.10;;
22786;SDS011;63134;52.020;4.714;2023-04-06T09:58:54;15.60;;;10.25;;
22786;SDS011;63134;52.020;4.714;2023-04-06T10:01:44;12.43;;;9.38;;
22786;SDS011;63134;52.020;4.714;2023-04-06T10:04:43;15.18;;;8.93;;
22786;SDS011;63134;52.020;4.714;2023-04-06T10:07:44;10.27;;;8.05;;
22786;SDS011;63134;52.020;4.714;2023-04-06T10:10:44;17.63;;;10.25;;
22786;SDS011;63134;52.020;4.714;2023-04-06T10:13:30;12.75;;;8.98;;
22786;SDS011;63134;52.020;4.714;2023-04-06T10:16:16;12.15;;;8.65;;
22786;SDS011;63134;52.020;4.714;2023-04-06T10:19:04;11.88;;;8.73;;
22786;SDS011;63134;52.020;4.714;2023-04-06T10:21:57;14.82;;;8.38;;
22786;SDS011;63134;52.020;4.714;2023-04-06T10:24:47;12.38;;;8.55;;
22786;SDS011;63134;52.020;4.714;2023-04-06T10:27:32;10.95;;;8.05;;
22786;SDS011;63134;52.020;4.714;2023-04-06T10:30:18;15.02;;;9.23;;
22786;SDS011;63134;52.020;4.714;2023-04-06T10:33:12;14.95;;;9.05;;
22786;SDS011;63134;52.020;4.714;2023-04-06T10:36:08;13.77;;;9.00;;
22786;SDS011;63134;52.020;4.714;2023-04-06T10:39:15;12.35;;;8.35;;
22786;SDS011;63134;52.020;4.714;2023-04-06T10:42:10;12.25;;;8.80;;
22786;SDS011;63134;52.020;4.714;2023-04-06T10:44:56;11.95;;;9.50;;
22786;SDS011;63134;52.020;4.714;2023-04-06T10:47:42;14.48;;;10.00;;
22786;SDS011;63134;52.020;4.714;2023-04-06T10:50:28;16.58;;;8.65;;
22786;SDS011;63134;52.020;4.714;2023-04-06T10:53:21;11.38;;;8.90;;
22786;SDS011;63134;52.020;4.714;2023-04-06T10:56:11;13.95;;;10.38;;
22786;SDS011;63134;52.020;4.714;2023-04-06T10:58:58;15.13;;;9.63;;
22786;SDS011;63134;52.020;4.714;2023-04-06T11:01:44;12.63;;;9.48;;
22786;SDS011;63134;52.020;4.714;2023-04-06T11:04:31;17.05;;;10.27;;
22786;SDS011;63134;52.020;4.714;2023-04-06T11:07:22;16.33;;;9.88;;
22786;SDS011;63134;52.020;4.714;2023-04-06T11:10:09;11.90;;;9.52;;
22786;SDS011;63134;52.020;4.714;2023-04-06T11:13:05;13.38;;;10.00;;
22786;SDS011;63134;52.020;4.714;2023-04-06T11:15:55;13.32;;;9.93;;
22786;SDS011;63134;52.020;4.714;2023-04-06T11:24:28;14.02;;;11.25;;
22786;SDS011;63134;52.020;4.714;2023-04-06T11:27:14;18.90;;;12.68;;
22786;SDS011;63134;52.020;4.714;2023-04-06T11:30:01;17.65;;;12.48;;
22786;SDS011;63134;52.020;4.714;2023-04-06T11:32:47;15.48;;;12.13;;
22786;SDS011;63134;52.020;4.714;2023-04-06T11:35:33;17.90;;;12.38;;
22786;SDS011;63134;52.020;4.714;2023-04-06T11:38:19;16.67;;;12.10;;
22786;SDS011;63134;52.020;4.714;2023-04-06T11:41:05;17.40;;;12.55;;
22786;SDS011;63134;52.020;4.714;2023-04-06T11:43:54;17.33;;;12.43;;
22786;SDS011;63134;52.020;4.714;2023-04-06T11:46:40;19.33;;;13.00;;
22786;SDS011;63134;52.020;4.714;2023-04-06T11:49:36;16.25;;;12.38;;
22786;SDS011;63134;52.020;4.714;2023-04-06T11:52:24;17.77;;;12.70;;
22786;SDS011;63134;52.020;4.714;2023-04-06T11:55:16;17.50;;;12.15;;
22786;SDS011;63134;52.020;4.714;2023-04-06T11:58:03;13.90;;;10.95;;
22786;SDS011;63134;52.020;4.714;2023-04-06T12:00:51;16.63;;;11.82;;
22786;SDS011;63134;52.020;4.714;2023-04-06T12:03:37;16.60;;;12.02;;
22786;SDS011;63134;52.020;4.714;2023-04-06T12:06:26;13.38;;;10.63;;
22786;SDS011;63134;52.020;4.714;2023-04-06T12:09:12;15.50;;;11.57;;
22786;SDS011;63134;52.020;4.714;2023-04-06T12:12:02;16.13;;;10.75;;
22786;SDS011;63134;52.020;4.714;2023-04-06T12:14:48;13.02;;;10.65;;
22786;SDS011;63134;52.020;4.714;2023-04-06T12:17:33;16.25;;;11.55;;
22786;SDS011;63134;52.020;4.714;2023-04-06T12:20:21;14.00;;;9.70;;
22786;SDS011;63134;52.020;4.714;2023-04-06T12:23:11;17.65;;;11.25;;
22786;SDS011;63134;52.020;4.714;2023-04-06T12:25:56;14.80;;;10.63;;
22786;SDS011;63134;52.020;4.714;2023-04-06T12:28:42;14.10;;;11.32;;
22786;SDS011;63134;52.020;4.714;2023-04-06T12:31:29;16.48;;;11.43;;
22786;SDS011;63134;52.020;4.714;2023-04-06T12:34:15;12.05;;;10.20;;
22786;SDS011;63134;52.020;4.714;2023-04-06T12:37:03;14.68;;;11.38;;
22786;SDS011;63134;52.020;4.714;2023-04-06T12:39:48;14.15;;;10.98;;
22786;SDS011;63134;52.020;4.714;2023-04-06T12:42:34;17.85;;;12.00;;
22786;SDS011;63134;52.020;4.714;2023-04-06T12:45:42;14.45;;;11.65;;
22786;SDS011;63134;52.020;4.714;2023-04-06T12:48:28;17.10;;;11.38;;
22786;SDS011;63134;52.020;4.714;2023-04-06T12:51:14;18.20;;;12.15;;
22786;SDS011;63134;52.020;4.714;2023-04-06T12:54:01;15.00;;;11.27;;
22786;SDS011;63134;52.020;4.714;2023-04-06T12:56:47;18.83;;;12.80;;
22786;SDS011;63134;52.020;4.714;2023-04-06T12:59:33;18.35;;;12.23;;
22786;SDS011;63134;52.020;4.714;2023-04-06T13:02:20;18.95;;;12.70;;
22786;SDS011;63134;52.020;4.714;2023-04-06T13:05:06;19.83;;;12.93;;
22786;SDS011;63134;52.020;4.714;2023-04-06T13:07:52;23.10;;;14.38;;
22786;SDS011;63134;52.020;4.714;2023-04-06T13:10:37;18.70;;;12.65;;
22786;SDS011;63134;52.020;4.714;2023-04-06T13:13:24;20.65;;;13.85;;
22786;SDS011;63134;52.020;4.714;2023-04-06T13:16:11;20.83;;;14.02;;
22786;SDS011;63134;52.020;4.714;2023-04-06T13:18:56;18.20;;;13.50;;
22786;SDS011;63134;52.020;4.714;2023-04-06T13:21:42;19.73;;;14.73;;
22786;SDS011;63134;52.020;4.714;2023-04-06T13:24:27;24.00;;;14.88;;
22786;SDS011;63134;52.020;4.714;2023-04-06T13:27:13;21.50;;;16.13;;
22786;SDS011;63134;52.020;4.714;2023-04-06T13:29:59;18.73;;;13.88;;
22786;SDS011;63134;52.020;4.714;2023-04-06T13:32:45;20.05;;;14.77;;
22786;SDS011;63134;52.020;4.714;2023-04-06T13:35:31;23.40;;;15.52;;
22786;SDS011;63134;52.020;4.714;2023-04-06T13:38:17;22.55;;;15.95;;
22786;SDS011;63134;52.020;4.714;2023-04-06T13:41:05;21.73;;;15.85;;
22786;SDS011;63134;52.020;4.714;2023-04-06T13:43:50;20.95;;;14.57;;
22786;SDS011;63134;52.020;4.714;2023-04-06T13:46:35;17.48;;;12.75;;
22786;SDS011;63134;52.020;4.714;2023-04-06T13:49:22;22.48;;;15.07;;
22786;SDS011;63134;52.020;4.714;2023-04-06T13:52:07;25.20;;;17.33;;
22786;SDS011;63134;52.020;4.714;2023-04-06T13:54:54;28.02;;;18.02;;
22786;SDS011;63134;52.020;4.714;2023-04-06T13:57:40;22.25;;;16.92;;
22786;SDS011;63134;52.020;4.714;2023-04-06T14:00:26;22.25;;;17.10;;
22786;SDS011;63134;52.020;4.714;2023-04-06T14:03:12;20.27;;;15.00;;
22786;SDS011;63134;52.020;4.714;2023-04-06T14:05:57;20.52;;;16.15;;
22786;SDS011;63134;52.020;4.714;2023-04-06T14:08:53;22.35;;;15.63;;
22786;SDS011;63134;52.020;4.714;2023-04-06T14:11:39;23.73;;;16.40;;
22786;SDS011;63134;52.020;4.714;2023-04-06T14:14:25;24.55;;;16.92;;
22786;SDS011;63134;52.020;4.714;2023-04-06T14:17:10;25.27;;;16.85;;
22786;SDS011;63134;52.020;4.714;2023-04-06T14:19:59;20.13;;;13.38;;
22786;SDS011;63134;52.020;4.714;2023-04-06T14:22:44;23.88;;;15.57;;
22786;SDS011;63134;52.020;4.714;2023-04-06T14:25:31;26.55;;;16.60;;
22786;SDS011;63134;52.020;4.714;2023-04-06T14:28:17;23.63;;;16.55;;
22786;SDS011;63134;52.020;4.714;2023-04-06T14:31:09;23.52;;;16.50;;
22786;SDS011;63134;52.020;4.714;2023-04-06T14:33:57;21.53;;;16.50;;
22786;SDS011;63134;52.020;4.714;2023-04-06T14:36:42;25.35;;;17.02;;
22786;SDS011;63134;52.020;4.714;2023-04-06T14:39:28;23.50;;;16.02;;
22786;SDS011;63134;52.020;4.714;2023-04-06T14:42:13;23.83;;;16.33;;
22786;SDS011;63134;52.020;4.714;2023-04-06T14:44:59;24.38;;;16.02;;
22786;SDS011;63134;52.020;4.714;2023-04-06T14:47:47;24.52;;;17.33;;
22786;SDS011;63134;52.020;4.714;2023-04-06T14:50:33;21.15;;;16.13;;
22786;SDS011;63134;52.020;4.714;2023-04-06T14:53:19;25.20;;;17.15;;
22786;SDS011;63134;52.020;4.714;2023-04-06T14:56:04;25.83;;;16.98;;
22786;SDS011;63134;52.020;4.714;2023-04-06T14:58:52;25.55;;;17.02;;
22786;SDS011;63134;52.020;4.714;2023-04-06T15:01:37;24.55;;;16.70;;
22786;SDS011;63134;52.020;4.714;2023-04-06T15:04:23;27.15;;;16.65;;
22786;SDS011;63134;52.020;4.714;2023-04-06T15:07:08;24.95;;;16.95;;
22786;SDS011;63134;52.020;4.714;2023-04-06T15:09:54;24.30;;;18.67;;
22786;SDS011;63134;52.020;4.714;2023-04-06T15:12:40;25.05;;;18.95;;
22786;SDS011;63134;52.020;4.714;2023-04-06T15:15:25;28.00;;;19.92;;
22786;SDS011;63134;52.020;4.714;2023-04-06T15:18:11;32.55;;;19.60;;
22786;SDS011;63134;52.020;4.714;2023-04-06T15:20:57;30.40;;;19.83;;
22786;SDS011;63134;52.020;4.714;2023-04-06T15:23:44;27.33;;;19.00;;
22786;SDS011;63134;52.020;4.714;2023-04-06T15:26:30;25.48;;;18.80;;
22786;SDS011;63134;52.020;4.714;2023-04-06T15:29:16;24.85;;;17.88;;
22786;SDS011;63134;52.020;4.714;2023-04-06T15:32:06;29.15;;;19.02;;
22786;SDS011;63134;52.020;4.714;2023-04-06T15:34:53;24.90;;;18.02;;
22786;SDS011;63134;52.020;4.714;2023-04-06T15:37:48;25.67;;;18.92;;
22786;SDS011;63134;52.020;4.714;2023-04-06T15:40:34;27.15;;;19.58;;
22786;SDS011;63134;52.020;4.714;2023-04-06T15:43:27;24.67;;;19.52;;
22786;SDS011;63134;52.020;4.714;2023-04-06T15:46:13;29.67;;;20.50;;
22786;SDS011;63134;52.020;4.714;2023-04-06T15:48:58;30.33;;;21.08;;
22786;SDS011;63134;52.020;4.714;2023-04-06T15:51:47;28.67;;;20.48;;
22786;SDS011;63134;52.020;4.714;2023-04-06T15:54:37;28.88;;;20.13;;
22786;SDS011;63134;52.020;4.714;2023-04-06T15:57:24;29.20;;;21.00;;
22786;SDS011;63134;52.020;4.714;2023-04-06T16:00:10;26.45;;;20.15;;
22786;SDS011;63134;52.020;4.714;2023-04-06T16:02:56;28.60;;;20.90;;
22786;SDS011;63134;52.020;4.714;2023-04-06T16:05:42;30.00;;;21.27;;
22786;SDS011;63134;52.020;4.714;2023-04-06T16:08:43;29.35;;;20.90;;
22786;SDS011;63134;52.020;4.714;2023-04-06T16:11:29;26.02;;;19.80;;
22786;SDS011;63134;52.020;4.714;2023-04-06T16:14:17;27.60;;;19.88;;
22786;SDS011;63134;52.020;4.714;2023-04-06T16:17:02;26.83;;;20.50;;
22786;SDS011;63134;52.020;4.714;2023-04-06T16:19:48;28.27;;;20.63;;
22786;SDS011;63134;52.020;4.714;2023-04-06T16:22:34;33.80;;;22.35;;
22786;SDS011;63134;52.020;4.714;2023-04-06T16:25:20;30.15;;;21.20;;
22786;SDS011;63134;52.020;4.714;2023-04-06T16:28:06;29.38;;;23.08;;
22786;SDS011;63134;52.020;4.714;2023-04-06T16:30:51;34.00;;;24.55;;